地図

経路データ

SID SEASON NUMBER BASIN SUBBASIN NAME ISO_TIME NATURE LAT LON WMO_WIND WMO_PRES WMO_AGENCY TRACK_TYPE DIST2LAND LANDFALL IFLAG USA_AGENCY USA_ATCF_ID USA_LAT USA_LON USA_RECORD USA_STATUS USA_WIND USA_PRES USA_SSHS USA_R34_NE USA_R34_SE USA_R34_SW USA_R34_NW USA_R50_NE USA_R50_SE USA_R50_SW USA_R50_NW USA_R64_NE USA_R64_SE USA_R64_SW USA_R64_NW USA_POCI USA_ROCI USA_RMW USA_EYE TOKYO_LAT TOKYO_LON TOKYO_GRADE TOKYO_WIND TOKYO_PRES TOKYO_R50_DIR TOKYO_R50_LONG TOKYO_R50_SHORT TOKYO_R30_DIR TOKYO_R30_LONG TOKYO_R30_SHORT TOKYO_LAND CMA_LAT CMA_LON CMA_CAT CMA_WIND CMA_PRES HKO_LAT HKO_LON HKO_CAT HKO_WIND HKO_PRES NEWDELHI_LAT NEWDELHI_LON NEWDELHI_GRADE NEWDELHI_WIND NEWDELHI_PRES NEWDELHI_CI NEWDELHI_DP NEWDELHI_POCI REUNION_LAT REUNION_LON REUNION_TYPE REUNION_WIND REUNION_PRES REUNION_TNUM REUNION_CI REUNION_RMW REUNION_R34_NE REUNION_R34_SE REUNION_R34_SW REUNION_R34_NW REUNION_R50_NE REUNION_R50_SE REUNION_R50_SW REUNION_R50_NW REUNION_R64_NE REUNION_R64_SE REUNION_R64_SW REUNION_R64_NW BOM_LAT BOM_LON BOM_TYPE BOM_WIND BOM_PRES BOM_TNUM BOM_CI BOM_RMW BOM_R34_NE BOM_R34_SE BOM_R34_SW BOM_R34_NW BOM_R50_NE BOM_R50_SE BOM_R50_SW BOM_R50_NW BOM_R64_NE BOM_R64_SE BOM_R64_SW BOM_R64_NW BOM_ROCI BOM_POCI BOM_EYE BOM_POS_METHOD BOM_PRES_METHOD NADI_LAT NADI_LON NADI_CAT NADI_WIND NADI_PRES WELLINGTON_LAT WELLINGTON_LON WELLINGTON_WIND WELLINGTON_PRES DS824_LAT DS824_LON DS824_STAGE DS824_WIND DS824_PRES TD9636_LAT TD9636_LON TD9636_STAGE TD9636_WIND TD9636_PRES TD9635_LAT TD9635_LON TD9635_WIND TD9635_PRES TD9635_ROCI NEUMANN_LAT NEUMANN_LON NEUMANN_CLASS NEUMANN_WIND NEUMANN_PRES MLC_LAT MLC_LON MLC_CLASS MLC_WIND MLC_PRES USA_GUST BOM_GUST BOM_GUST_PER REUNION_GUST REUNION_GUST_PER USA_SEAHGT USA_SEARAD_NE USA_SEARAD_SE USA_SEARAD_SW USA_SEARAD_NW STORM_SPEED STORM_DIR
1957063S10134 1957 19 SI WA NOT_NAMED 1957-03-03 23:00:00 NR -9.90000 133.600 main 184 184 __________O___ -1 -9.90000 133.600 7 1 0
1957063S10134 1957 19 SI WA NOT_NAMED 1957-03-04 00:00:00 TS -9.91310 133.584 main 184 169 O________OP___ jtwc_sh SH251957 -9.90000 133.600 -1 -9.90000 133.600 TC -9.92620 133.568 7 2 229
1957063S10134 1957 19 SI WA NOT_NAMED 1957-03-04 03:00:00 TS -9.99762 133.486 main 169 155 P________PP___ SH251957 -9.99001 133.498 -1 -9.99001 133.498 TC -10.0078 133.471 7 3 226
1957063S10134 1957 19 SI WA NOT_NAMED 1957-03-04 06:00:00 TS -10.1000 133.389 main 155 141 O________OP___ jtwc_sh SH251957 -10.1000 133.400 -1 -10.1000 133.400 TC -10.1001 133.372 7 3 219
1957063S10134 1957 19 SI WA NOT_NAMED 1957-03-04 09:00:00 TS -10.2321 133.295 main 141 127 P________PP___ SH251957 -10.2425 133.307 -1 -10.2425 133.307 TC -10.2114 133.270 7 3 214
1957063S10134 1957 19 SI WA NOT_NAMED 1957-03-04 11:00:00 TS -10.3316 133.226 main 127 116 P________PO___ SH251957 -10.3474 133.239 -1 -10.3474 133.239 TC -10.3000 133.200 1 4 216
1957063S10134 1957 19 SI WA NOT_NAMED 1957-03-04 12:00:00 TS -10.3831 133.188 main 116 103 O________OP___ jtwc_sh SH251957 -10.4000 133.200 -1 -10.4000 133.200 TC -10.3494 133.164 1 4 218
1957063S10134 1957 19 SI WA NOT_NAMED 1957-03-04 15:00:00 TS -10.5332 133.063 main 103 78 P________PP___ SH251957 -10.5425 133.072 -1 -10.5425 133.072 TC -10.5148 133.045 1 4 222
1957063S10134 1957 19 SI WA NOT_NAMED 1957-03-04 18:00:00 TS -10.6987 132.897 main 78 49 O________OP___ jtwc_sh SH251957 -10.7000 132.900 -1 -10.7000 132.900 TC -10.6961 132.891 1 5 226
1957063S10134 1957 19 SI WA NOT_NAMED 1957-03-04 21:00:00 TS -10.8936 132.685 main 49 31 P________PP___ SH251957 -10.8999 132.687 -1 -10.8999 132.687 TC -10.8809 132.682 1 6 230
1957063S10134 1957 19 SI WA NOT_NAMED 1957-03-04 23:00:00 TS -11.0243 132.504 main 31 15 P________PO___ SH251957 -11.0364 132.506 -1 -11.0364 132.506 TC -11.0000 132.500 1 7 236
1957063S10134 1957 19 SI WA NOT_NAMED 1957-03-05 00:00:00 TS -11.0861 132.399 main 15 0 O________OP___ jtwc_sh SH251957 -11.1000 132.400 -1 -11.1000 132.400 TC -11.0583 132.396 1 8 243
1957063S10134 1957 19 SI WA NOT_NAMED 1957-03-05 03:00:00 TS -11.2532 132.035 main 0 0 P________PP___ SH251957 -11.2650 132.037 -1 -11.2650 132.037 TC -11.2297 132.029 1 8 248
1957063S10134 1957 19 SI WA NOT_NAMED 1957-03-05 06:00:00 TS -11.3962 131.600 main 15 0 O________OP___ jtwc_sh SH251957 -11.4000 131.600 -1 -11.4000 131.600 TC -11.3885 131.599 1 9 254
1957063S10134 1957 19 SI WA NOT_NAMED 1957-03-05 09:00:00 TS -11.5185 131.119 main 0 0 P________PP___ SH251957 -11.5150 131.115 -1 -11.5150 131.115 TC -11.5254 131.127 1 10 257
1957063S10134 1957 19 SI WA NOT_NAMED 1957-03-05 11:00:00 TS -11.5833 130.781 main 0 0 P________PO___ SH251957 -11.5750 130.772 -1 -11.5750 130.772 TC -11.6000 130.800 1 10 260
1957063S10134 1957 19 SI WA NOT_NAMED 1957-03-05 12:00:00 TS -11.6093 130.607 main 0 0 O________OP___ jtwc_sh SH251957 -11.6000 130.600 -1 -11.6000 130.600 TC -11.6278 130.622 1 10 263
1957063S10134 1957 19 SI WA NOT_NAMED 1957-03-05 15:00:00 TS -11.6677 130.083 main 11 11 P________PP___ SH251957 -11.6575 130.092 -1 -11.6575 130.092 TC -11.6881 130.065 1 10 264
1957063S10134 1957 19 SI WA NOT_NAMED 1957-03-05 18:00:00 TS -11.7093 129.573 main 55 55 O________OP___ jtwc_sh SH251957 -11.7000 129.600 -1 -11.7000 129.600 TC -11.7280 129.518 1 10 265
1957063S10134 1957 19 SI WA NOT_NAMED 1957-03-05 21:00:00 TS -11.7504 129.080 main 108 108 P________PP___ SH251957 -11.7426 129.098 -1 -11.7426 129.098 TC -11.7661 129.044 1 9 264
1957063S10134 1957 19 SI WA NOT_NAMED 1957-03-05 23:00:00 TS -11.7851 128.809 main 141 141 P________PO___ SH251957 -11.7777 128.813 -1 -11.7777 128.813 TC -11.8000 128.800 1 7 261
1957063S10134 1957 19 SI WA NOT_NAMED 1957-03-06 00:00:00 TS -11.8076 128.703 main 152 152 O________OP___ jtwc_sh SH251957 -11.8000 128.700 -1 -11.8000 128.700 TC -11.8227 128.708 1 5 251
1957063S10134 1957 19 SI WA NOT_NAMED 1957-03-06 03:00:00 TS -11.8951 128.491 main 174 174 P________PP___ SH251957 -11.8924 128.475 -1 -11.8924 128.475 TC -11.9006 128.522 1 3 236
1957063S10134 1957 19 SI WA NOT_NAMED 1957-03-06 06:00:00 TS -11.9985 128.416 main 186 186 O________OP___ jtwc_sh SH251957 -12.0000 128.400 -1 -12.0000 128.400 TC -11.9956 128.449 1 2 199
1957063S10134 1957 19 SI WA NOT_NAMED 1957-03-06 09:00:00 TS -12.0936 128.423 main 188 177 P________PP___ SH251957 -12.0850 128.405 -1 -12.0850 128.405 TC -12.1107 128.460 1 2 161
1957063S10134 1957 19 SI WA NOT_NAMED 1957-03-06 11:00:00 TS -12.1702 128.474 main 179 179 P________PO___ SH251957 -12.1552 128.461 -1 -12.1552 128.461 TC -12.2000 128.500 1 3 146
1957063S10134 1957 19 SI WA NOT_NAMED 1957-03-06 12:00:00 TS -12.2169 128.505 main 179 172 O________OP___ jtwc_sh SH251957 -12.2000 128.500 -1 -12.2000 128.500 TC -12.2507 128.515 1 4 147
1957063S10134 1957 19 SI WA NOT_NAMED 1957-03-06 15:00:00 TS -12.4019 128.629 main 176 147 P________PP___ SH251957 -12.3925 128.642 -1 -12.3925 128.642 TC -12.4205 128.603 1 5 145
1957063S10134 1957 19 SI WA NOT_NAMED 1957-03-06 18:00:00 TS -12.6015 128.780 main 147 125 O________OP___ jtwc_sh SH251957 -12.6000 128.800 -1 -12.6000 128.800 TC -12.6045 128.739 1 5 144
1957063S10134 1957 19 SI WA NOT_NAMED 1957-03-06 21:00:00 TS -12.7673 128.899 main 125 109 P________PP___ SH251957 -12.7575 128.900 -1 -12.7575 128.900 TC -12.7869 128.896 1 4 144
1957063S10134 1957 19 SI WA NOT_NAMED 1957-03-06 23:00:00 TS -12.8684 128.976 main 109 109 P________PO___ SH251957 -12.8526 128.964 -1 -12.8526 128.964 TC -12.9000 129.000 1 4 144
1957063S10134 1957 19 SI WA NOT_NAMED 1957-03-07 00:00:00 TS -12.9169 129.011 main 109 88 O________OP___ jtwc_sh SH251957 -12.9000 129.000 -1 -12.9000 129.000 TC -12.9508 129.033 1 4 142
1957063S10134 1957 19 SI WA NOT_NAMED 1957-03-07 03:00:00 TS -13.0694 129.138 main 88 63 P________PP___ SH251957 -13.0575 129.143 -1 -13.0575 129.143 TC -13.0931 129.129 1 4 138
1957063S10134 1957 19 SI WA NOT_NAMED 1957-03-07 06:00:00 TS -13.2069 129.279 main 63 48 O________OP___ jtwc_sh SH251957 -13.2000 129.300 -1 -13.2000 129.300 TC -13.2206 129.236 1 4 132
1957063S10134 1957 19 SI WA NOT_NAMED 1957-03-07 09:00:00 TS -13.3160 129.416 main 48 34 P________PP___ SH251957 -13.3075 129.435 -1 -13.3075 129.435 TC -13.3332 129.377 1 4 126
1957063S10134 1957 19 SI WA NOT_NAMED 1957-03-07 11:00:00 TS -13.3795 129.526 main 34 24 P________PO___ SH251957 -13.3693 129.539 -1 -13.3693 129.539 TC -13.4000 129.500 1 4 118
1957063S10134 1957 19 SI WA NOT_NAMED 1957-03-07 12:00:00 TS -13.4069 129.593 main 24 0 O________OP___ jtwc_sh SH251957 -13.4000 129.600 -1 -13.4000 129.600 TC -13.4207 129.578 1 5 111
1957063S10134 1957 19 SI WA NOT_NAMED 1957-03-07 15:00:00 TS -13.4940 129.830 main 0 0 P________PP___ SH251957 -13.5075 129.820 -1 -13.5075 129.820 TC -13.4671 129.851 1 5 108
1957063S10134 1957 19 SI WA NOT_NAMED 1957-03-07 18:00:00 TS -13.5722 130.121 main 0 0 O________OP___ jtwc_sh SH251957 -13.6000 130.100 -1 -13.6000 130.100 TC -13.5167 130.162 1 6 101
1957063S10134 1957 19 SI WA NOT_NAMED 1957-03-07 21:00:00 TS -13.6147 130.458 main 0 0 P________PP___ SH251957 -13.6200 130.443 -1 -13.6200 130.443 TC -13.6039 130.488 1 7 100
1957063S10134 1957 19 SI WA NOT_NAMED 1957-03-07 23:00:00 TS -13.6716 130.689 main 0 0 P________PO___ SH251957 -13.6574 130.684 -1 -13.6574 130.684 TC -13.7000 130.700 1 7 107
1957063S10134 1957 19 SI WA NOT_NAMED 1957-03-08 00:00:00 TS -13.7196 130.804 main 0 0 O________OP___ jtwc_sh SH251957 -13.7000 130.800 -1 -13.7000 130.800 TC -13.7588 130.813 1 8 124
1957063S10134 1957 19 SI WA NOT_NAMED 1957-03-08 03:00:00 TS -13.9634 131.128 main 0 0 P________PP___ SH251957 -13.9550 131.115 -1 -13.9550 131.115 TC -13.9802 131.155 1 8 134
1957063S10134 1957 19 SI WA NOT_NAMED 1957-03-08 06:00:00 TS -14.2897 131.422 main 0 0 O________OP___ jtwc_sh SH251957 -14.3000 131.400 -1 -14.3000 131.400 TC -14.2690 131.467 1 9 140
1957063S10134 1957 19 SI WA NOT_NAMED 1957-03-08 09:00:00 TS -14.6217 131.703 main 0 0 P________PP___ SH251957 -14.6200 131.702 -1 -14.6200 131.702 TC -14.6251 131.704 1 9 146
1957063S10134 1957 19 SI WA NOT_NAMED 1957-03-08 11:00:00 TS -14.8757 131.836 main 0 0 P________PO___ SH251957 -14.8636 131.853 -1 -14.8636 131.853 TC -14.9000 131.800 1 9 158
1957063S10134 1957 19 SI WA NOT_NAMED 1957-03-08 12:00:00 TS -15.0194 131.870 main 0 0 O________OP___ jtwc_sh SH251957 -15.0000 131.900 -1 -15.0000 131.900 TC -15.0486 131.825 1 9 0
1957063S10134 1957 19 SI WA NOT_NAMED 1957-03-08 15:00:00 TS -15.5029 131.861 main 0 0 P________PP___ SH251957 -15.4725 131.908 -1 -15.4725 131.908 TC -15.5333 131.814 1 10 187
1957063S10134 1957 19 SI WA NOT_NAMED 1957-03-08 18:00:00 TS -16.0378 131.742 main 0 0 O________OP___ jtwc_sh SH251957 -16.0000 131.800 -1 -16.0000 131.800 TC -16.0631 131.704 1 12 196
1957063S10134 1957 19 SI WA NOT_NAMED 1957-03-08 21:00:00 NR -16.6209 131.532 main 0 0 __________P___ SH251957 -1 TC -16.6209 131.532 1 12 199
1957063S10134 1957 19 SI WA NOT_NAMED 1957-03-08 23:00:00 NR -17.0000 131.400 main 0 __________O___ SH251957 -1 TC -17.0000 131.400 1 12 198

IBTrACS Databaseについて

本データベースは、米国NOAAが公開する1842年以降の世界の熱帯低気圧のベストトラックデータアーカイブInternational Best Track Archive for Climate Stewardship (IBTrACS)を、ウェブで閲覧しやすい形式に変換したものです。

最終更新日:2021-12-06